Time;durP1;ratioP1;P1;durP2;ratioP2;P2;SDS_P1;SDS_P2;PMS_P1;PMS_P2;Temp;Humidity;BMP_temperature;BMP_pressure;BME280_temperature;BME280_humidity;BME280_pressure;Samples;Min_cycle;Max_cycle;Signal;HPM_P1;HPM_P2
2022/11/08 00:03:54;;;;;;;5.85;3.20;;;2.50;99.90;;;;;;8357613;28;20099;-84
2022/11/08 00:16:33;;;;;;;5.38;3.00;;;2.10;99.90;;;;;;8356482;28;20036;-84
2022/11/08 00:20:34;;;;;;;5.00;2.72;;;2.00;99.90;;;;;;8361131;28;20025;-84
2022/11/08 00:24:34;;;;;;;4.13;2.60;;;2.10;99.90;;;;;;8346793;28;20607;-84
2022/11/08 00:28:35;;;;;;;7.20;2.67;;;2.10;99.90;;;;;;8339813;28;20366;-84
2022/11/08 00:32:35;;;;;;;4.38;2.75;;;2.30;99.90;;;;;;8359768;28;20040;-84
2022/11/08 00:36:36;;;;;;;5.40;2.53;;;2.30;99.90;;;;;;8352631;28;20105;-84
2022/11/08 00:40:36;;;;;;;3.40;2.20;;;2.20;99.90;;;;;;8358793;28;20028;-84
2022/11/08 00:44:37;;;;;;;3.42;2.50;;;2.10;99.90;;;;;;8354844;28;20412;-84
2022/11/08 00:48:38;;;;;;;4.63;2.40;;;2.10;99.90;;;;;;8354307;28;20028;-84
2022/11/08 00:52:38;;;;;;;4.03;2.50;;;2.10;99.90;;;;;;8351950;28;20112;-84
2022/11/08 00:56:39;;;;;;;5.03;2.35;;;2.20;99.90;;;;;;8355364;28;20541;-84
2022/11/08 01:01:18;;;;;;;3.78;2.08;;;2.30;99.90;;;;;;8345926;28;20036;-84
2022/11/08 01:05:19;;;;;;;4.30;2.35;;;2.40;99.90;;;;;;8353254;28;20026;-84
2022/11/08 01:09:54;;;;;;;5.07;2.65;;;2.20;99.90;;;;;;8352183;28;20079;-84
2022/11/08 01:13:58;;;;;;;5.20;2.08;;;1.90;99.90;;;;;;8348619;28;20063;-84
2022/11/08 01:17:58;;;;;;;6.95;2.40;;;1.80;99.90;;;;;;8353850;28;20031;-84
2022/11/08 01:22:19;;;;;;;9.65;2.40;;;1.60;99.90;;;;;;8343325;28;20025;-84
2022/11/08 01:26:31;;;;;;;3.95;2.67;;;1.60;99.90;;;;;;8331385;28;20077;-84
2022/11/08 01:30:35;;;;;;;3.78;2.50;;;1.70;99.90;;;;;;8345906;28;20384;-83
2022/11/08 01:34:35;;;;;;;3.85;2.72;;;1.70;99.90;;;;;;8327370;28;20124;-84
2022/11/08 01:38:36;;;;;;;2.50;1.90;;;1.50;99.90;;;;;;8342525;28;20591;-84
2022/11/08 01:42:37;;;;;;;4.57;2.60;;;1.60;99.90;;;;;;8337030;28;20094;-84
2022/11/08 01:46:54;;;;;;;4.43;2.20;;;1.60;99.90;;;;;;8335595;28;20021;-84
2022/11/08 01:50:58;;;;;;;5.28;2.47;;;1.70;99.90;;;;;;8349945;28;20025;-84
2022/11/08 01:55:35;;;;;;;4.68;1.90;;;1.80;99.90;;;;;;8359079;28;20025;-84
2022/11/08 01:59:38;;;;;;;7.80;2.10;;;1.80;99.90;;;;;;8337202;28;20396;-84
2022/11/08 02:03:56;;;;;;;5.55;2.00;;;1.70;99.90;;;;;;8345754;28;20393;-84
2022/11/08 02:08:35;;;;;;;4.47;2.05;;;1.70;99.90;;;;;;8357723;28;20486;-84
2022/11/08 02:12:35;;;;;;;2.38;1.70;;;1.50;99.90;;;;;;8352489;28;20055;-84
2022/11/08 02:16:38;;;;;;;2.65;1.70;;;1.40;99.90;;;;;;8357718;28;20090;-84
2022/11/08 02:21:08;;;;;;;2.55;1.90;;;1.30;99.90;;;;;;8345058;28;20409;-84
2022/11/08 02:25:08;;;;;;;3.63;2.20;;;1.20;99.90;;;;;;8339523;28;20119;-84
2022/11/08 02:29:25;;;;;;;6.63;2.47;;;1.20;99.90;;;;;;8365422;28;20032;-84
2022/11/08 02:33:45;;;;;;;3.40;2.30;;;1.40;99.90;;;;;;8362405;28;20036;-84
2022/11/08 02:37:46;;;;;;;4.15;2.20;;;1.40;99.90;;;;;;8352494;28;20520;-84
2022/11/08 02:41:47;;;;;;;3.47;2.13;;;1.50;99.90;;;;;;8362029;28;20021;-85
2022/11/08 02:45:48;;;;;;;4.35;2.15;;;1.50;99.90;;;;;;8349812;28;20021;-84
2022/11/08 02:49:49;;;;;;;2.70;1.90;;;1.50;99.90;;;;;;8358787;28;20519;-84
2022/11/08 02:53:50;;;;;;;2.95;1.95;;;1.50;99.90;;;;;;8365108;28;20017;-84
2022/11/08 02:58:00;;;;;;;3.65;2.13;;;1.50;99.90;;;;;;8357338;28;20086;-84
2022/11/08 03:02:01;;;;;;;3.47;2.30;;;1.50;99.90;;;;;;8352200;28;20480;-84
2022/11/08 03:06:02;;;;;;;5.95;2.55;;;1.50;99.90;;;;;;8350081;28;20022;-84
2022/11/08 03:10:09;;;;;;;3.55;2.53;;;1.40;99.90;;;;;;8355984;28;20481;-84
2022/11/08 03:14:10;;;;;;;5.03;2.30;;;1.40;99.90;;;;;;8361918;28;20145;-85
2022/11/08 03:18:10;;;;;;;2.40;1.80;;;1.40;99.90;;;;;;8356905;28;20040;-84
2022/11/08 03:22:11;;;;;;;3.85;2.30;;;1.30;99.90;;;;;;8346226;28;20025;-84
2022/11/08 03:26:13;;;;;;;5.90;1.85;;;1.30;99.90;;;;;;8340091;28;20064;-85
2022/11/08 03:30:13;;;;;;;2.85;1.83;;;1.20;99.90;;;;;;8342337;28;20021;-84
2022/11/08 03:34:23;;;;;;;4.30;2.17;;;1.30;99.90;;;;;;8353436;28;20044;-84
2022/11/08 03:38:24;;;;;;;3.15;2.10;;;1.30;99.90;;;;;;8361157;28;20021;-84
2022/11/08 03:42:24;;;;;;;3.45;2.42;;;1.20;99.90;;;;;;8342856;28;20087;-84
2022/11/08 03:46:25;;;;;;;2.70;2.17;;;1.30;99.90;;;;;;8348952;28;20035;-84
2022/11/08 03:50:25;;;;;;;4.05;2.53;;;1.20;99.90;;;;;;8354775;28;20071;-84
2022/11/08 03:54:26;;;;;;;4.90;2.58;;;1.20;99.90;;;;;;8360108;28;20053;-84
2022/11/08 03:58:27;;;;;;;3.28;2.30;;;1.10;99.90;;;;;;8348394;28;20024;-84
2022/11/08 04:02:27;;;;;;;3.50;1.92;;;1.00;99.90;;;;;;8353325;28;20163;-84
2022/11/08 04:06:38;;;;;;;2.70;1.85;;;0.90;99.90;;;;;;8362406;28;20025;-84
2022/11/08 04:10:50;;;;;;;2.00;1.48;;;0.90;99.90;;;;;;8334952;28;20049;-84
2022/11/08 04:23:31;;;;;;;2.45;1.88;;;1.10;99.90;;;;;;8355661;28;20039;-84
2022/11/08 04:27:32;;;;;;;3.30;2.38;;;1.00;99.90;;;;;;8339872;28;20029;-85
2022/11/08 04:31:32;;;;;;;2.85;1.83;;;0.80;99.90;;;;;;8346531;28;20051;-85
2022/11/08 04:35:33;;;;;;;3.13;1.88;;;0.60;99.90;;;;;;8349696;28;20417;-83
2022/11/08 04:39:44;;;;;;;4.00;2.33;;;0.50;99.90;;;;;;8352142;28;20037;-83
2022/11/08 04:43:47;;;;;;;4.43;1.90;;;0.30;99.90;;;;;;8352506;28;20029;-84
2022/11/08 04:47:48;;;;;;;3.13;2.08;;;0.30;99.90;;;;;;8342103;28;20021;-84
2022/11/08 04:51:49;;;;;;;2.72;1.90;;;0.20;99.90;;;;;;8369355;28;20032;-85
2022/11/08 04:55:49;;;;;;;3.28;1.50;;;0.20;99.90;;;;;;8355298;28;20041;-84
2022/11/08 04:59:50;;;;;;;3.03;1.63;;;0.20;99.90;;;;;;8341001;28;20021;-85
2022/11/08 05:03:51;;;;;;;2.63;1.65;;;0.30;99.90;;;;;;8323356;28;20025;-84
2022/11/08 05:07:53;;;;;;;3.15;1.95;;;0.40;99.90;;;;;;8311481;28;20017;-84
2022/11/08 05:11:53;;;;;;;3.33;1.75;;;0.40;99.90;;;;;;8331560;28;20055;-84
2022/11/08 05:15:59;;;;;;;3.10;2.08;;;0.30;99.90;;;;;;8325790;28;20026;-85
2022/11/08 05:24:19;;;;;;;2.92;2.03;;;0.30;99.90;;;;;;8347084;28;20095;-85
2022/11/08 05:28:20;;;;;;;5.38;3.08;;;0.30;99.90;;;;;;8345527;28;20021;-84
2022/11/08 05:32:21;;;;;;;8.98;4.00;;;0.20;99.90;;;;;;8324895;28;20036;-87
2022/11/08 05:36:22;;;;;;;95.70;34.35;;;0.20;99.90;;;;;;8342478;28;20037;-85
2022/11/08 05:40:22;;;;;;;22.08;9.80;;;0.20;99.90;;;;;;8332726;28;20037;-85
2022/11/08 05:44:23;;;;;;;17.15;6.85;;;0.20;99.90;;;;;;8336306;28;20048;-85
2022/11/08 05:48:24;;;;;;;10.02;4.57;;;0.20;99.90;;;;;;8337329;28;20493;-85
2022/11/08 05:52:24;;;;;;;9.07;3.78;;;0.20;99.90;;;;;;8329539;28;20022;-85
2022/11/08 05:56:25;;;;;;;7.78;3.33;;;0.30;99.90;;;;;;8342432;28;20033;-85
2022/11/08 06:00:25;;;;;;;8.52;3.78;;;0.20;99.90;;;;;;8329612;28;20037;-85
2022/11/08 06:04:26;;;;;;;4.82;3.03;;;0.10;99.90;;;;;;8335442;28;20045;-84
2022/11/08 06:08:26;;;;;;;4.57;2.25;;;0.00;99.90;;;;;;8358756;28;20052;-85
2022/11/08 06:12:27;;;;;;;7.68;4.75;;;0.10;99.90;;;;;;8345178;28;20028;-85
2022/11/08 06:16:28;;;;;;;4.90;3.03;;;0.20;99.90;;;;;;8352423;28;20024;-85
2022/11/08 06:20:28;;;;;;;5.00;3.20;;;0.20;99.90;;;;;;8329780;28;20021;-85
2022/11/08 06:24:29;;;;;;;5.05;3.20;;;0.30;99.90;;;;;;8344287;28;20029;-85
2022/11/08 06:28:30;;;;;;;9.18;4.95;;;0.30;99.90;;;;;;8336979;28;20017;-85
2022/11/08 06:32:31;;;;;;;9.85;5.63;;;0.30;99.90;;;;;;8335286;28;20482;-85
2022/11/08 06:36:31;;;;;;;10.38;5.70;;;0.40;99.90;;;;;;8337747;28;20057;-85
2022/11/08 06:40:32;;;;;;;9.90;4.55;;;0.40;99.90;;;;;;8343063;28;20033;-85
2022/11/08 06:44:33;;;;;;;10.23;4.93;;;0.20;99.90;;;;;;8331265;28;20037;-85
2022/11/08 06:48:33;;;;;;;8.77;4.22;;;0.20;99.90;;;;;;8340007;28;20022;-84
2022/11/08 06:52:34;;;;;;;8.40;4.32;;;0.20;99.90;;;;;;8341891;28;20588;-86
2022/11/08 06:56:34;;;;;;;7.22;3.75;;;0.40;99.90;;;;;;8343035;28;20026;-85
2022/11/08 07:00:35;;;;;;;9.98;4.72;;;0.50;99.90;;;;;;8342569;28;20056;-85
2022/11/08 07:04:35;;;;;;;7.65;4.47;;;0.80;99.90;;;;;;8329170;28;20038;-85
2022/11/08 07:08:36;;;;;;;9.65;5.75;;;1.30;99.90;;;;;;8326306;28;20091;-84
2022/11/08 07:12:36;;;;;;;12.80;6.40;;;1.60;99.90;;;;;;8346760;28;20033;-85
2022/11/08 07:16:37;;;;;;;12.07;6.13;;;1.70;99.90;;;;;;8328035;28;20036;-85
2022/11/08 07:20:39;;;;;;;12.18;6.10;;;1.70;99.90;;;;;;8349324;28;20028;-84
2022/11/08 07:24:40;;;;;;;13.98;6.43;;;1.50;99.90;;;;;;8342144;28;20032;-85
2022/11/08 07:28:40;;;;;;;12.82;7.68;;;1.60;99.90;;;;;;8334328;28;20116;-85
2022/11/08 07:32:41;;;;;;;16.60;8.25;;;1.70;99.90;;;;;;8345033;28;20029;-85
2022/11/08 07:36:42;;;;;;;18.55;8.88;;;1.60;99.90;;;;;;8334727;28;20057;-85
2022/11/08 07:40:43;;;;;;;14.38;7.03;;;1.70;99.90;;;;;;8342789;28;20036;-85
2022/11/08 07:44:44;;;;;;;14.65;8.32;;;1.70;99.90;;;;;;8359628;28;20027;-85
2022/11/08 07:48:44;;;;;;;11.93;7.38;;;2.10;99.90;;;;;;8354762;28;20017;-85
2022/11/08 07:52:49;;;;;;;13.60;7.88;;;2.00;99.90;;;;;;8341057;28;20033;-85
2022/11/08 07:56:49;;;;;;;15.60;10.05;;;2.20;99.90;;;;;;8348699;28;20032;-85
2022/11/08 08:00:50;;;;;;;41.88;22.58;;;2.40;99.90;;;;;;8342248;28;20028;-85
2022/11/08 08:04:50;;;;;;;21.27;11.30;;;2.70;99.90;;;;;;8354559;28;20029;-85
2022/11/08 08:08:51;;;;;;;16.23;9.27;;;2.80;99.90;;;;;;8344741;28;20017;-85
2022/11/08 08:12:52;;;;;;;28.38;16.92;;;2.90;99.90;;;;;;8339179;28;20087;-85
2022/11/08 08:16:52;;;;;;;37.53;21.33;;;3.00;99.90;;;;;;8342661;28;20033;-84
2022/11/08 08:20:53;;;;;;;100.38;59.42;;;3.50;99.90;;;;;;8352247;28;20532;-84
2022/11/08 08:24:53;;;;;;;68.00;41.72;;;3.90;99.90;;;;;;8341784;28;20133;-83
2022/11/08 08:28:54;;;;;;;23.63;14.55;;;4.20;99.90;;;;;;8348886;28;20076;-84
2022/11/08 08:33:06;;;;;;;12.52;8.20;;;4.40;99.90;;;;;;8329942;28;20501;-84
2022/11/08 08:37:07;;;;;;;8.32;6.30;;;5.00;99.90;;;;;;8337989;28;20117;-84
2022/11/08 08:41:07;;;;;;;5.85;3.95;;;5.00;99.90;;;;;;8333088;28;20033;-84
2022/11/08 08:45:09;;;;;;;5.38;3.92;;;5.10;99.90;;;;;;8340464;28;20347;-84
2022/11/08 08:49:10;;;;;;;4.95;3.67;;;4.90;99.90;;;;;;8351096;28;20132;-84
2022/11/08 08:53:11;;;;;;;5.00;3.75;;;4.90;99.90;;;;;;8333772;28;20032;-85
2022/11/08 08:57:11;;;;;;;5.32;3.65;;;5.30;99.90;;;;;;8331352;28;20060;-84
2022/11/08 09:01:12;;;;;;;5.78;3.95;;;5.30;99.90;;;;;;8343817;28;20029;-85
2022/11/08 09:05:13;;;;;;;7.60;4.05;;;6.00;99.90;;;;;;8348032;28;20034;-85
2022/11/08 09:09:14;;;;;;;6.85;4.55;;;6.60;99.90;;;;;;8338689;28;20118;-85
2022/11/08 09:13:14;;;;;;;5.43;4.22;;;7.30;99.90;;;;;;8338338;28;20104;-85
2022/11/08 09:17:15;;;;;;;4.97;3.60;;;8.10;99.90;;;;;;8328993;28;20509;-85
2022/11/08 09:21:15;;;;;;;5.00;3.33;;;8.10;99.90;;;;;;8345200;28;20022;-85
2022/11/08 09:25:17;;;;;;;5.32;3.50;;;8.30;99.90;;;;;;8346599;28;20026;-85
2022/11/08 09:29:17;;;;;;;4.57;3.30;;;8.80;99.90;;;;;;8332192;28;20503;-85
2022/11/08 09:33:18;;;;;;;5.97;4.10;;;8.80;99.90;;;;;;8330255;28;20037;-85
2022/11/08 09:37:18;;;;;;;6.97;3.75;;;8.90;99.90;;;;;;8330226;28;20401;-85
2022/11/08 09:41:37;;;;;;;7.15;3.88;;;9.60;99.90;;;;;;8329460;28;20022;-85
2022/11/08 09:45:45;;;;;;;4.07;2.83;;;10.30;99.90;;;;;;8345265;28;20115;-86
2022/11/08 09:50:04;;;;;;;3.83;2.00;;;11.00;99.90;;;;;;8338626;28;20036;-85
2022/11/08 09:54:12;;;;;;;1.90;1.50;;;11.50;99.90;;;;;;8341856;28;20030;-86
2022/11/08 09:58:33;;;;;;;2.00;1.30;;;12.30;99.90;;;;;;8337763;28;20039;-86
2022/11/08 10:02:35;;;;;;;3.13;1.27;;;13.20;99.90;;;;;;8336150;28;20037;-86
2022/11/08 10:06:54;;;;;;;1.30;0.88;;;13.30;99.90;;;;;;8332304;28;20028;-86
2022/11/08 10:11:33;;;;;;;1.65;1.20;;;13.60;99.90;;;;;;8340632;28;20017;-85
2022/11/08 10:15:41;;;;;;;3.45;1.58;;;13.40;99.90;;;;;;8336115;28;20032;-85
2022/11/08 10:20:04;;;;;;;3.05;1.38;;;12.90;99.90;;;;;;8338648;28;20389;-86
2022/11/08 10:24:15;;;;;;;2.47;1.30;;;12.70;99.90;;;;;;8355507;28;20497;-86
2022/11/08 10:28:21;;;;;;;4.20;2.50;;;12.60;99.90;;;;;;8342004;28;20025;-85
2022/11/08 10:32:23;;;;;;;1.75;1.33;;;12.80;99.90;;;;;;8338196;28;20036;-86
2022/11/08 10:36:30;;;;;;;1.92;1.10;;;12.80;99.90;;;;;;8345050;28;20116;-85
2022/11/08 10:40:41;;;;;;;1.45;1.23;;;13.00;99.90;;;;;;8335803;28;20033;-85
2022/11/08 10:44:42;;;;;;;1.75;1.20;;;12.90;99.90;;;;;;8346038;28;20061;-86
2022/11/08 10:48:43;;;;;;;3.55;1.55;;;12.80;99.90;;;;;;8363143;28;20160;-86
2022/11/08 10:52:52;;;;;;;1.88;1.13;;;12.90;99.90;;;;;;8350997;28;20029;-85
2022/11/08 10:56:57;;;;;;;4.38;1.45;;;12.90;99.90;;;;;;8343730;28;20035;-86
2022/11/08 11:01:11;;;;;;;2.80;1.40;;;12.80;99.90;;;;;;8341212;28;20060;-86
2022/11/08 11:05:15;;;;;;;2.08;1.42;;;13.10;99.90;;;;;;8349076;28;20104;-86
2022/11/08 11:09:21;;;;;;;1.52;1.17;;;13.10;99.90;;;;;;8344442;28;20454;-85
2022/11/08 11:13:26;;;;;;;1.40;1.23;;;13.50;99.90;;;;;;8336404;28;20086;-86
2022/11/08 11:17:32;;;;;;;2.30;1.20;;;13.60;99.90;;;;;;8333391;28;20033;-85
2022/11/08 11:21:38;;;;;;;3.55;1.40;;;14.40;99.90;;;;;;8342624;28;20048;-85
2022/11/08 11:25:50;;;;;;;2.17;1.35;;;15.00;99.90;;;;;;8331678;28;20021;-86
2022/11/08 11:30:29;;;;;;;2.38;1.67;;;15.30;99.90;;;;;;8331548;28;20051;-86
2022/11/08 11:34:42;;;;;;;3.30;1.83;;;15.90;99.90;;;;;;8349034;28;20072;-85
2022/11/08 11:38:46;;;;;;;3.63;2.28;;;16.70;99.90;;;;;;8330088;28;20037;-86
2022/11/08 11:43:16;;;;;;;1.00;0.80;;;19.00;99.90;;;;;;8336409;28;20231;-85
2022/11/08 11:47:28;;;;;;;1.65;0.95;;;21.10;99.90;;;;;;8342815;28;20057;-85
2022/11/08 11:51:29;;;;;;;1.27;1.05;;;21.80;99.90;;;;;;8353589;28;20409;-85
2022/11/08 11:55:47;;;;;;;2.42;1.05;;;21.40;98.60;;;;;;8342609;28;20404;-85
2022/11/08 12:00:06;;;;;;;1.88;1.10;;;19.70;99.90;;;;;;8335731;28;20024;-85
2022/11/08 12:04:06;;;;;;;2.00;1.15;;;18.10;99.90;;;;;;8339664;28;20094;-85
2022/11/08 12:08:21;;;;;;;1.35;1.00;;;17.00;99.90;;;;;;8331171;28;20017;-85
2022/11/08 12:12:31;;;;;;;1.75;1.25;;;16.80;99.90;;;;;;8334880;28;20075;-85
2022/11/08 12:16:58;;;;;;;1.75;1.15;;;16.70;99.90;;;;;;8348120;28;20029;-85
2022/11/08 12:21:03;;;;;;;2.22;1.00;;;16.60;99.90;;;;;;8347003;28;20485;-85
2022/11/08 12:25:25;;;;;;;2.17;0.95;;;16.30;99.90;;;;;;8337992;28;20021;-84
2022/11/08 12:29:56;;;;;;;2.15;0.90;;;16.20;99.90;;;;;;8324803;28;20028;-85
2022/11/08 12:34:19;;;;;;;1.75;1.13;;;15.90;99.90;;;;;;8330828;28;20036;-84
2022/11/08 12:38:41;;;;;;;1.33;1.00;;;15.50;99.90;;;;;;8329757;28;20025;-85
2022/11/08 12:42:51;;;;;;;1.77;0.95;;;15.20;99.90;;;;;;8326480;28;20057;-84
2022/11/08 12:47:20;;;;;;;2.17;1.25;;;15.00;99.90;;;;;;8346333;28;20104;-85
2022/11/08 12:51:43;;;;;;;2.00;1.20;;;14.70;99.90;;;;;;8340343;28;20026;-84
2022/11/08 12:55:47;;;;;;;1.40;1.10;;;14.70;99.90;;;;;;8323558;28;20032;-85
2022/11/08 13:00:00;;;;;;;1.10;0.98;;;14.70;99.90;;;;;;8347045;28;20021;-85
2022/11/08 13:04:24;;;;;;;1.95;1.20;;;14.70;99.90;;;;;;8331159;28;20400;-84
2022/11/08 13:08:45;;;;;;;2.78;1.27;;;14.70;99.90;;;;;;8338009;28;20026;-85
2022/11/08 13:13:19;;;;;;;2.38;1.30;;;14.70;99.90;;;;;;8328386;28;20033;-83
2022/11/08 13:17:25;;;;;;;1.90;1.20;;;14.80;99.90;;;;;;8332561;28;20029;-84
2022/11/08 13:21:29;;;;;;;3.10;1.40;;;14.90;99.90;;;;;;8336980;28;20117;-84
2022/11/08 13:25:34;;;;;;;4.15;1.10;;;15.00;99.90;;;;;;8335674;28;20413;-84
2022/11/08 13:29:35;;;;;;;2.97;1.23;;;15.00;99.90;;;;;;8336720;28;20022;-84
2022/11/08 13:33:40;;;;;;;1.75;1.23;;;14.70;99.90;;;;;;8329172;28;20094;-85
2022/11/08 13:38:06;;;;;;;1.63;1.15;;;14.50;99.90;;;;;;8331839;28;20026;-83
2022/11/08 13:42:16;;;;;;;3.60;1.30;;;14.60;99.90;;;;;;8334661;28;20049;-85
2022/11/08 13:46:21;;;;;;;3.03;1.37;;;14.50;99.90;;;;;;8345600;28;20445;-85
2022/11/08 13:50:28;;;;;;;4.10;1.27;;;14.40;99.90;;;;;;8331205;28;20033;-84
2022/11/08 13:54:48;;;;;;;1.73;1.35;;;14.20;99.90;;;;;;8335983;28;20025;-84
2022/11/08 13:58:49;;;;;;;2.38;1.30;;;13.90;99.90;;;;;;8347730;28;20370;-85
2022/11/08 14:02:49;;;;;;;1.33;1.05;;;13.60;99.90;;;;;;8331140;28;20025;-85
2022/11/08 14:07:21;;;;;;;2.13;1.35;;;13.40;99.90;;;;;;8331368;28;20626;-85
2022/11/08 14:11:43;;;;;;;2.65;1.40;;;13.40;99.90;;;;;;8338548;28;20022;-85
2022/11/08 14:16:01;;;;;;;2.20;1.48;;;13.50;99.90;;;;;;8326535;28;20037;-85
2022/11/08 14:20:38;;;;;;;2.13;1.38;;;13.80;99.90;;;;;;8332132;28;20028;-85
2022/11/08 14:24:39;;;;;;;1.60;1.27;;;13.80;99.90;;;;;;8325872;28;20064;-85
2022/11/08 14:28:42;;;;;;;3.88;1.10;;;13.60;99.90;;;;;;8350885;28;20048;-85
2022/11/08 14:32:43;;;;;;;2.17;1.48;;;13.40;99.90;;;;;;8341356;28;20060;-85
2022/11/08 14:36:44;;;;;;;2.25;1.40;;;13.20;99.90;;;;;;8337844;28;20033;-85
2022/11/08 14:40:51;;;;;;;2.75;1.15;;;13.20;99.90;;;;;;8337374;28;20036;-85
2022/11/08 14:44:54;;;;;;;2.67;1.40;;;13.00;99.90;;;;;;8348585;28;20028;-85
2022/11/08 14:48:58;;;;;;;1.38;1.15;;;13.00;99.90;;;;;;8343121;28;20527;-85
2022/11/08 14:53:19;;;;;;;1.83;1.50;;;13.00;99.90;;;;;;8336075;28;20413;-85
2022/11/08 14:57:40;;;;;;;1.95;1.30;;;12.90;99.90;;;;;;8337689;28;20123;-85
2022/11/08 15:01:45;;;;;;;2.03;1.40;;;13.00;99.90;;;;;;8323734;28;20029;-85
2022/11/08 15:05:53;;;;;;;4.60;1.50;;;13.10;99.90;;;;;;8354067;28;20025;-85
2022/11/08 15:09:54;;;;;;;2.97;1.60;;;13.10;99.90;;;;;;8351049;28;20059;-85
2022/11/08 15:13:57;;;;;;;3.88;2.10;;;13.00;99.90;;;;;;8339298;28;20231;-86
2022/11/08 15:18:17;;;;;;;3.80;1.95;;;12.80;99.90;;;;;;8368204;28;20008;-84
2022/11/08 15:22:32;;;;;;;2.85;1.80;;;12.40;99.90;;;;;;8352112;28;20044;-85
2022/11/08 15:26:34;;;;;;;4.15;1.70;;;12.00;99.90;;;;;;8351614;28;20030;-85
2022/11/08 15:30:39;;;;;;;2.58;1.90;;;11.70;99.90;;;;;;8351867;28;20021;-85
2022/11/08 15:34:58;;;;;;;2.83;2.03;;;11.50;99.90;;;;;;8358634;28;20029;-85
2022/11/08 15:39:00;;;;;;;5.20;2.70;;;11.20;99.90;;;;;;8363497;28;20449;-85
2022/11/08 15:43:01;;;;;;;3.95;2.13;;;10.90;99.90;;;;;;8349557;28;20021;-85
2022/11/08 15:47:02;;;;;;;3.90;2.05;;;10.70;99.90;;;;;;8345372;28;20392;-85
2022/11/08 15:51:03;;;;;;;3.55;2.33;;;10.50;99.90;;;;;;8353015;28;20025;-85
2022/11/08 15:55:04;;;;;;;4.75;2.20;;;10.30;99.90;;;;;;8356934;28;20032;-85
2022/11/08 15:59:05;;;;;;;4.57;2.28;;;10.20;99.90;;;;;;8360075;28;20024;-85
2022/11/08 16:03:05;;;;;;;3.83;2.40;;;10.50;99.90;;;;;;8348728;28;20456;-84
2022/11/08 16:07:06;;;;;;;4.97;2.05;;;10.10;99.90;;;;;;8337376;28;20448;-85
2022/11/08 16:11:17;;;;;;;6.47;2.10;;;10.20;99.90;;;;;;8349561;28;20021;-85
2022/11/08 16:15:23;;;;;;;4.40;1.80;;;9.80;99.90;;;;;;8349394;28;20608;-85
2022/11/08 16:19:39;;;;;;;6.15;3.03;;;9.20;99.90;;;;;;8346659;28;20033;-85
2022/11/08 16:23:41;;;;;;;7.00;3.47;;;8.90;99.90;;;;;;8338123;28;20029;-84
2022/11/08 16:27:41;;;;;;;13.75;6.15;;;8.80;99.90;;;;;;8354123;28;20099;-84
2022/11/08 16:31:42;;;;;;;3.20;2.20;;;8.90;99.90;;;;;;8343097;28;20444;-84
2022/11/08 16:35:42;;;;;;;4.25;2.05;;;9.00;99.90;;;;;;8332633;28;20456;-84
2022/11/08 16:39:43;;;;;;;3.33;2.00;;;9.00;99.90;;;;;;8358343;28;20135;-84
2022/11/08 16:43:44;;;;;;;2.80;1.83;;;8.60;99.90;;;;;;8347260;28;20036;-85
2022/11/08 16:47:47;;;;;;;2.45;1.67;;;8.20;99.90;;;;;;8358218;28;20043;-84
2022/11/08 16:51:48;;;;;;;3.15;2.00;;;7.80;99.90;;;;;;8354835;28;20047;-85
2022/11/08 16:55:49;;;;;;;4.82;2.97;;;7.50;99.90;;;;;;8341821;28;20016;-85
2022/11/08 16:59:50;;;;;;;10.80;5.43;;;7.20;99.90;;;;;;8352206;28;20064;-85
2022/11/08 17:03:50;;;;;;;11.48;6.70;;;6.90;99.90;;;;;;8346959;28;20060;-85
2022/11/08 17:07:52;;;;;;;10.27;6.40;;;7.00;99.90;;;;;;8349443;28;20025;-85
2022/11/08 17:11:52;;;;;;;10.50;6.43;;;7.00;99.90;;;;;;8360510;28;20021;-85
2022/11/08 17:15:54;;;;;;;11.35;6.80;;;7.00;99.90;;;;;;8350493;28;20029;-85
2022/11/08 17:19:54;;;;;;;16.70;8.20;;;7.00;99.90;;;;;;8358612;28;20740;-85
2022/11/08 17:23:56;;;;;;;19.77;9.07;;;6.80;99.90;;;;;;8339154;28;20025;-85
2022/11/08 17:27:56;;;;;;;17.63;8.60;;;6.50;99.90;;;;;;8340286;28;20046;-84
2022/11/08 17:31:57;;;;;;;23.20;11.40;;;6.30;99.90;;;;;;8338186;28;20048;-85
2022/11/08 17:36:06;;;;;;;15.27;8.32;;;6.10;99.90;;;;;;8335307;28;20035;-85
2022/11/08 17:40:08;;;;;;;18.77;9.20;;;6.10;99.90;;;;;;8342985;28;20049;-85
2022/11/08 17:44:08;;;;;;;18.02;9.25;;;6.00;99.90;;;;;;8346377;28;20037;-85
2022/11/08 17:48:09;;;;;;;14.13;7.53;;;6.10;99.90;;;;;;8349861;28;20140;-85
2022/11/08 17:52:10;;;;;;;16.08;9.05;;;6.10;99.90;;;;;;8355259;28;20026;-85
2022/11/08 17:56:11;;;;;;;34.83;16.58;;;6.00;99.90;;;;;;8337182;28;20025;-84
2022/11/08 18:00:12;;;;;;;42.60;19.25;;;6.40;99.90;;;;;;8346410;28;20022;-85
2022/11/08 18:04:13;;;;;;;13.88;6.88;;;6.40;99.90;;;;;;8340500;28;20090;-85
2022/11/08 18:08:13;;;;;;;5.47;3.60;;;6.30;99.90;;;;;;8345766;28;20083;-85
2022/11/08 18:12:14;;;;;;;3.97;2.42;;;5.80;99.90;;;;;;8357703;28;20021;-84
2022/11/08 18:16:17;;;;;;;4.03;2.50;;;5.80;99.90;;;;;;8358373;28;20017;-85
2022/11/08 18:20:17;;;;;;;3.45;2.15;;;5.80;99.90;;;;;;8341082;28;20026;-85
2022/11/08 18:24:18;;;;;;;6.53;3.40;;;5.70;99.90;;;;;;8352354;28;20037;-85
2022/11/08 18:28:19;;;;;;;6.93;3.90;;;5.80;99.90;;;;;;8338797;28;20083;-85
2022/11/08 18:32:19;;;;;;;6.05;4.03;;;5.90;99.90;;;;;;8349388;28;20040;-85
2022/11/08 18:36:22;;;;;;;6.47;4.20;;;5.70;99.90;;;;;;8337752;28;20025;-85
2022/11/08 18:40:23;;;;;;;22.15;11.73;;;5.60;99.90;;;;;;8331966;28;20060;-85
2022/11/08 18:44:24;;;;;;;9.23;4.65;;;5.70;99.90;;;;;;8362411;28;20033;-86
2022/11/08 18:48:24;;;;;;;15.25;9.15;;;5.60;99.90;;;;;;8351274;28;20025;-85
2022/11/08 18:52:25;;;;;;;12.10;6.82;;;5.50;99.90;;;;;;8360632;28;20501;-85
2022/11/08 18:56:25;;;;;;;13.52;7.72;;;5.40;99.90;;;;;;8356668;28;20031;-85
2022/11/08 19:00:26;;;;;;;18.10;9.95;;;5.40;99.90;;;;;;8357488;28;20029;-85
2022/11/08 19:04:26;;;;;;;19.52;10.43;;;5.60;99.90;;;;;;8358046;28;20033;-85
2022/11/08 19:08:29;;;;;;;14.05;7.18;;;5.80;99.90;;;;;;8344277;28;20032;-85
2022/11/08 19:12:29;;;;;;;12.45;6.30;;;6.00;99.90;;;;;;8365295;28;20090;-85
2022/11/08 19:16:30;;;;;;;11.55;6.05;;;6.00;99.90;;;;;;8357014;28;20672;-85
2022/11/08 19:20:31;;;;;;;8.93;5.60;;;5.70;99.90;;;;;;8355633;28;20039;-85
2022/11/08 19:24:31;;;;;;;12.73;7.00;;;5.40;99.90;;;;;;8363678;28;20028;-85
2022/11/08 19:28:35;;;;;;;8.90;5.60;;;5.30;99.90;;;;;;8357427;28;20027;-85
2022/11/08 19:32:35;;;;;;;12.32;6.03;;;5.30;99.90;;;;;;8330640;28;20033;-85
2022/11/08 19:36:42;;;;;;;13.38;7.68;;;5.20;99.90;;;;;;8355074;28;20104;-84
2022/11/08 19:40:46;;;;;;;13.90;7.93;;;5.20;99.90;;;;;;8329072;28;20112;-85
2022/11/08 19:44:46;;;;;;;49.75;20.55;;;5.20;99.90;;;;;;8344863;28;20028;-85
2022/11/08 19:48:48;;;;;;;30.33;15.57;;;5.10;99.90;;;;;;8354672;28;20029;-85
2022/11/08 19:52:49;;;;;;;27.17;15.30;;;5.10;99.90;;;;;;8336942;28;20029;-85
2022/11/08 19:56:49;;;;;;;35.25;18.55;;;5.10;99.90;;;;;;8362292;28;20021;-85
2022/11/08 20:00:50;;;;;;;28.27;13.90;;;5.00;99.90;;;;;;8347416;28;20029;-85
2022/11/08 20:04:51;;;;;;;23.95;11.70;;;5.10;99.90;;;;;;8352052;28;20536;-85
2022/11/08 20:08:53;;;;;;;14.25;7.95;;;5.20;99.90;;;;;;8347126;28;20475;-87
2022/11/08 20:12:53;;;;;;;13.85;7.15;;;5.50;99.90;;;;;;8349157;28;20579;-85
2022/11/08 20:16:54;;;;;;;8.88;5.68;;;5.60;99.90;;;;;;8345688;28;20032;-85
2022/11/08 20:20:55;;;;;;;9.90;5.43;;;5.60;99.90;;;;;;8341335;28;20052;-85
2022/11/08 20:24:55;;;;;;;9.43;5.32;;;5.60;99.90;;;;;;8350703;28;20025;-85
2022/11/08 20:28:56;;;;;;;10.77;5.88;;;5.20;99.90;;;;;;8364707;28;20021;-84
2022/11/08 20:32:56;;;;;;;9.93;5.95;;;4.80;99.90;;;;;;8345247;28;20033;-85
2022/11/08 20:36:57;;;;;;;9.43;5.07;;;4.50;99.90;;;;;;8321205;28;20118;-84
2022/11/08 20:40:58;;;;;;;5.90;3.58;;;4.40;99.90;;;;;;8345223;28;20481;-84
2022/11/08 20:44:59;;;;;;;4.45;3.30;;;4.40;99.90;;;;;;8345041;28;20029;-85
2022/11/08 20:49:00;;;;;;;6.22;3.78;;;4.40;99.90;;;;;;8338593;28;20018;-85
2022/11/08 20:53:00;;;;;;;5.75;4.20;;;4.30;99.90;;;;;;8340871;28;20029;-85
2022/11/08 20:57:01;;;;;;;6.10;3.28;;;4.50;99.90;;;;;;8340015;28;20037;-85
2022/11/08 21:01:06;;;;;;;7.43;5.18;;;4.40;99.90;;;;;;8331641;28;20029;-84
2022/11/08 21:05:07;;;;;;;8.35;4.80;;;4.50;99.90;;;;;;8331417;28;20504;-85
2022/11/08 21:09:23;;;;;;;9.88;5.22;;;4.80;99.90;;;;;;8347422;28;20048;-85
2022/11/08 21:13:34;;;;;;;7.00;4.85;;;4.90;99.90;;;;;;8339480;28;20033;-85
2022/11/08 21:17:35;;;;;;;13.05;6.47;;;5.00;99.90;;;;;;8317841;28;20131;-84
2022/11/08 21:21:36;;;;;;;10.48;6.00;;;5.20;99.90;;;;;;8331529;28;20021;-85
2022/11/08 21:25:36;;;;;;;11.18;5.50;;;5.10;99.90;;;;;;8338574;28;20029;-85
2022/11/08 21:29:37;;;;;;;8.82;5.68;;;4.90;99.90;;;;;;8356620;28;20032;-84
2022/11/08 21:33:38;;;;;;;9.73;6.38;;;4.90;99.90;;;;;;8346872;28;20557;-84
2022/11/08 21:38:26;;;;;;;9.45;5.22;;;4.80;99.90;;;;;;8336634;28;20025;-85
2022/11/08 21:42:27;;;;;;;13.48;5.90;;;4.70;99.90;;;;;;8333624;28;20443;-85
2022/11/08 21:46:36;;;;;;;11.25;5.93;;;4.60;99.90;;;;;;8360883;28;20074;-85